Terminal Aerodrome Forecast
Issued by NWS Fort Wayne, IN

Home | Current Version | Previous Version | Graphics & Text | Print | Product List | Glossary On
Versions: 1 2 3 4 5 6 7 8 9 10 11 12 13 14 15 16 17 18 19
000
FTUS43 KIWX 181350 RRI
TAFFWA

KFWA 181120Z 1812/1912 VRB03KT P6SM SCT080
     FM181500 03006KT P6SM SCT050 BKN250
     FM190000 08011KT P6SM BKN060=

USA.gov is the U.S. government's official web portal to all federal, state and local government web resources and services.